Time;durP1;ratioP1;P1;durP2;ratioP2;P2;SDS_P1;SDS_P2;PMS_P1;PMS_P2;Temp;Humidity;BMP_temperature;BMP_pressure;BME280_temperature;BME280_humidity;BME280_pressure;Samples;Min_cycle;Max_cycle;Signal;HPM_P1;HPM_P2
2020/12/13 00:00:00;;;;;;;63.70;28.63;;;7.20;99.90;;;;;;5006896;28;20034;-92
2020/12/13 00:03:07;;;;;;;76.43;32.70;;;7.20;99.90;;;;;;5016585;28;20036;-92
2020/12/13 00:05:40;;;;;;;65.00;29.13;;;7.20;99.90;;;;;;5016009;28;20120;-92
2020/12/13 00:08:12;;;;;;;66.35;28.23;;;7.20;99.90;;;;;;5019919;28;20043;-92
2020/12/13 00:10:41;;;;;;;78.22;31.67;;;7.20;99.90;;;;;;5017454;28;20030;-91
2020/12/13 00:13:12;;;;;;;68.10;29.73;;;7.10;99.90;;;;;;5017217;28;20029;-92
2020/12/13 00:16:09;;;;;;;;;;;;;;;;;;;;;
2020/12/13 00:19:04;;;;;;;72.18;27.73;;;7.00;99.90;;;;;;5035432;28;20381;-91
2020/12/13 00:22:04;;;;;;;72.82;29.08;;;7.00;99.90;;;;;;5018209;28;20421;-92
2020/12/13 00:25:19;;;;;;;60.67;24.85;;;7.00;99.90;;;;;;5017714;28;20037;-91
2020/12/13 00:28:02;;;;;;;70.30;26.60;;;7.00;99.90;;;;;;5034577;28;20045;-90
2020/12/13 00:30:31;;;;;;;60.78;26.27;;;7.10;99.90;;;;;;4999593;28;20483;-91
2020/12/13 00:36:42;;;;;;;;;;;;;;;;;;;;;
2020/12/13 00:39:16;;;;;;;58.63;23.15;;;7.00;99.90;;;;;;5032000;28;20037;-91
2020/12/13 00:41:50;;;;;;;57.40;22.73;;;7.00;99.90;;;;;;5001542;28;20041;-91
2020/12/13 00:44:37;;;;;;;60.53;20.95;;;7.00;99.90;;;;;;5016932;28;20580;-90
2020/12/13 00:47:13;;;;;;;57.20;20.73;;;7.00;99.90;;;;;;5013913;28;20047;-93
2020/12/13 00:49:47;;;;;;;52.17;19.65;;;7.00;99.90;;;;;;5017901;28;20033;-91
2020/12/13 00:52:26;;;;;;;54.28;19.33;;;7.00;99.90;;;;;;5035887;28;20080;-93
2020/12/13 00:55:30;;;;;;;68.07;19.70;;;7.00;99.90;;;;;;5017916;28;20485;-91
2020/12/13 00:57:59;;;;;;;50.30;19.33;;;7.00;99.90;;;;;;5040930;28;20778;-90
2020/12/13 01:00:30;;;;;;;47.95;18.38;;;7.00;99.90;;;;;;5076219;28;20021;-93
2020/12/13 01:03:00;;;;;;;49.83;19.45;;;7.00;99.90;;;;;;5062150;28;20015;-94
2020/12/13 01:05:31;;;;;;;52.50;21.33;;;7.00;99.90;;;;;;5064155;28;20055;-93
2020/12/13 01:08:03;;;;;;;58.08;21.83;;;7.10;99.90;;;;;;5061895;28;20128;-92
2020/12/13 01:10:48;;;;;;;60.42;21.98;;;7.00;99.90;;;;;;5045684;28;20032;-92
2020/12/13 01:13:24;;;;;;;58.22;19.83;;;7.00;99.90;;;;;;5040139;28;20082;-92
2020/12/13 01:15:54;;;;;;;51.45;19.73;;;7.10;99.90;;;;;;5040587;28;20385;-92
2020/12/13 01:18:39;;;;;;;59.60;19.77;;;7.00;99.90;;;;;;5040305;28;20469;-92
2020/12/13 01:24:31;;;;;;;52.88;20.02;;;7.00;99.90;;;;;;5056182;28;20040;-93
2020/12/13 01:27:07;;;;;;;58.45;19.83;;;7.00;99.90;;;;;;5040842;28;20078;-92
2020/12/13 01:29:33;;;;;;;61.58;21.73;;;7.00;99.90;;;;;;5040765;28;20491;-92
2020/12/13 01:32:02;;;;;;;50.03;19.88;;;6.90;99.90;;;;;;5057684;28;20132;-92
2020/12/13 01:34:46;;;;;;;53.83;20.00;;;7.00;99.90;;;;;;5040882;28;20036;-92
2020/12/13 01:37:18;;;;;;;52.08;19.15;;;7.00;99.90;;;;;;5040333;28;20082;-91
2020/12/13 01:39:57;;;;;;;51.20;18.10;;;7.00;99.90;;;;;;5041862;28;20025;-90
2020/12/13 01:42:26;;;;;;;56.72;18.13;;;7.00;99.90;;;;;;5040354;28;20059;-93
2020/12/13 01:44:58;;;;;;;46.20;17.80;;;7.00;99.90;;;;;;5039662;28;20021;-91
2020/12/13 01:47:29;;;;;;;47.38;17.38;;;7.00;99.90;;;;;;5058088;28;20017;-91
2020/12/13 01:50:37;;;;;;;40.20;15.90;;;7.00;99.90;;;;;;5039770;28;20461;-92
2020/12/13 01:53:16;;;;;;;48.30;18.50;;;7.10;99.90;;;;;;5058416;28;20093;-91
2020/12/13 01:55:44;;;;;;;47.70;18.15;;;7.00;99.90;;;;;;5039528;28;20487;-92
2020/12/13 01:58:40;;;;;;;48.28;17.83;;;7.00;99.90;;;;;;5023845;28;20033;-92
2020/12/13 02:01:09;;;;;;;43.85;17.38;;;7.10;99.90;;;;;;5038960;28;20029;-92
2020/12/13 02:03:45;;;;;;;53.78;19.58;;;7.00;99.90;;;;;;5039385;28;20111;-91
2020/12/13 02:06:27;;;;;;;51.60;19.50;;;7.00;99.90;;;;;;5021474;28;20093;-91
2020/12/13 02:08:53;;;;;;;65.18;22.15;;;7.10;99.90;;;;;;5010726;28;20038;-93
2020/12/13 02:11:19;;;;;;;58.55;21.90;;;7.10;99.90;;;;;;5018596;28;20029;-90
2020/12/13 02:13:48;;;;;;;57.13;21.40;;;7.00;99.90;;;;;;5043228;28;20089;-92
2020/12/13 02:16:15;;;;;;;54.22;21.25;;;7.00;99.90;;;;;;5037140;28;20022;-91
2020/12/13 02:19:21;;;;;;;58.58;23.25;;;7.00;99.90;;;;;;5018882;28;20120;-91
2020/12/13 02:21:48;;;;;;;51.97;20.05;;;7.00;99.90;;;;;;5020044;28;20025;-92
2020/12/13 02:24:16;;;;;;;49.97;19.38;;;7.10;99.90;;;;;;5019986;28;20029;-90
2020/12/13 02:26:47;;;;;;;48.08;19.95;;;7.10;99.90;;;;;;5019110;28;20021;-91
2020/12/13 02:29:13;;;;;;;46.20;19.65;;;7.10;99.90;;;;;;5019033;28;20029;-92
2020/12/13 02:31:44;;;;;;;48.92;19.25;;;7.10;99.90;;;;;;5027684;28;20045;-92
2020/12/13 02:34:14;;;;;;;52.95;18.40;;;7.10;99.90;;;;;;5056540;28;20029;-92
2020/12/13 02:36:40;;;;;;;59.47;19.58;;;7.10;99.90;;;;;;5038427;28;20028;-91
2020/12/13 02:39:07;;;;;;;52.00;19.85;;;7.10;99.90;;;;;;5038515;28;20025;-92
2020/12/13 02:41:35;;;;;;;49.20;17.90;;;7.20;99.90;;;;;;5038286;28;20060;-91
2020/12/13 02:44:03;;;;;;;54.72;18.48;;;7.10;99.90;;;;;;5039017;28;20036;-91
2020/12/13 02:46:29;;;;;;;64.45;19.85;;;7.20;99.90;;;;;;5055876;28;20029;-91
2020/12/13 02:48:55;;;;;;;47.85;18.45;;;7.10;99.90;;;;;;5037680;28;20043;-92
2020/12/13 02:51:21;;;;;;;59.83;18.67;;;7.20;99.90;;;;;;5037707;28;20027;-90
2020/12/13 02:53:46;;;;;;;48.50;18.70;;;7.10;99.90;;;;;;5038514;28;20056;-92
2020/12/13 02:56:18;;;;;;;56.03;18.80;;;7.10;99.90;;;;;;5021784;28;20029;-91
2020/12/13 02:58:45;;;;;;;60.72;19.35;;;7.10;99.90;;;;;;5033666;28;20117;-92
2020/12/13 03:01:10;;;;;;;59.40;18.67;;;7.10;99.90;;;;;;5056385;28;20024;-93
2020/12/13 03:03:37;;;;;;;60.97;17.35;;;7.20;99.90;;;;;;5038573;28;20051;-92
2020/12/13 03:06:06;;;;;;;68.47;18.85;;;7.20;99.90;;;;;;5038474;28;20021;-91
2020/12/13 03:08:32;;;;;;;57.25;17.13;;;7.20;99.90;;;;;;5038210;28;20492;-90
2020/12/13 03:10:58;;;;;;;62.33;17.00;;;7.20;99.90;;;;;;5021609;28;20033;-91
2020/12/13 03:13:25;;;;;;;54.53;18.27;;;7.20;99.90;;;;;;5038175;28;20053;-91
2020/12/13 03:15:53;;;;;;;64.05;19.52;;;7.20;99.90;;;;;;5055803;28;20029;-92
2020/12/13 03:18:18;;;;;;;86.05;19.73;;;7.20;99.90;;;;;;5037672;28;20052;-93
2020/12/13 03:20:44;;;;;;;61.95;18.25;;;7.20;99.90;;;;;;5021533;28;20029;-91
2020/12/13 03:23:10;;;;;;;73.95;17.90;;;7.20;99.90;;;;;;5038461;28;20064;-92
2020/12/13 03:25:36;;;;;;;61.08;18.27;;;7.20;99.90;;;;;;5037227;28;20021;-92
2020/12/13 03:28:02;;;;;;;79.72;20.13;;;7.20;99.90;;;;;;5037282;28;20031;-92
2020/12/13 03:30:29;;;;;;;68.07;19.00;;;7.20;99.90;;;;;;5037326;28;20063;-92
2020/12/13 03:33:01;;;;;;;85.82;20.95;;;7.30;99.90;;;;;;5037315;28;20045;-92
2020/12/13 03:35:27;;;;;;;86.63;19.27;;;7.30;99.90;;;;;;5004706;28;20040;-91
2020/12/13 03:37:55;;;;;;;66.10;18.08;;;7.30;99.90;;;;;;5037704;28;20186;-92
2020/12/13 03:40:21;;;;;;;67.38;19.10;;;7.30;99.90;;;;;;5037389;28;20115;-91
2020/12/13 03:42:46;;;;;;;79.13;18.40;;;7.30;99.90;;;;;;5037671;28;20133;-92
2020/12/13 03:45:15;;;;;;;69.30;17.35;;;7.30;99.90;;;;;;5054553;28;20153;-93
2020/12/13 03:47:43;;;;;;;80.60;20.10;;;7.30;99.90;;;;;;5037505;28;20025;-92
2020/12/13 03:50:09;;;;;;;74.60;19.02;;;7.30;99.90;;;;;;5037251;28;20124;-91
2020/12/13 03:52:36;;;;;;;70.72;19.13;;;7.30;99.90;;;;;;5055002;28;20457;-93
2020/12/13 03:55:04;;;;;;;64.15;18.92;;;7.30;99.90;;;;;;5037415;28;20028;-91
2020/12/13 03:57:37;;;;;;;65.10;20.25;;;7.30;99.90;;;;;;5055084;28;20031;-91
2020/12/13 04:00:07;;;;;;;64.18;18.92;;;7.30;99.90;;;;;;5036980;28;20083;-91
2020/12/13 04:02:32;;;;;;;59.97;18.55;;;7.30;99.90;;;;;;5037169;28;20107;-92
2020/12/13 04:05:01;;;;;;;65.78;19.55;;;7.30;99.90;;;;;;5036906;28;20457;-92
2020/12/13 04:07:27;;;;;;;62.45;19.00;;;7.40;99.90;;;;;;5037263;28;20087;-91
2020/12/13 04:10:05;;;;;;;63.20;20.17;;;7.40;99.90;;;;;;5037162;28;20472;-92
2020/12/13 04:12:30;;;;;;;76.97;22.63;;;7.40;99.90;;;;;;5054796;28;20024;-91
2020/12/13 04:14:56;;;;;;;66.68;21.15;;;7.40;99.90;;;;;;5054649;28;20672;-92
2020/12/13 04:17:21;;;;;;;67.22;21.45;;;7.40;99.90;;;;;;5036932;28;20051;-93
2020/12/13 04:19:52;;;;;;;63.25;20.58;;;7.40;99.90;;;;;;5036929;28;20057;-91
2020/12/13 04:22:18;;;;;;;71.55;20.83;;;7.40;99.90;;;;;;5036734;28;20029;-91
2020/12/13 04:24:51;;;;;;;66.68;20.75;;;7.40;99.90;;;;;;5020727;28;20055;-92
2020/12/13 04:27:23;;;;;;;61.63;20.13;;;7.40;99.90;;;;;;5037086;28;20035;-92
2020/12/13 04:29:49;;;;;;;54.47;18.83;;;7.50;99.90;;;;;;5037229;28;20389;-91
2020/12/13 04:32:15;;;;;;;63.78;19.55;;;7.40;99.90;;;;;;5036042;28;20041;-91
2020/12/13 04:34:41;;;;;;;53.20;20.20;;;7.40;99.90;;;;;;5054586;28;20043;-91
2020/12/13 04:37:10;;;;;;;56.33;17.90;;;7.40;99.90;;;;;;5039469;28;20032;-91
2020/12/13 04:39:39;;;;;;;52.38;17.83;;;7.40;99.90;;;;;;5056017;28;20033;-91
2020/12/13 04:42:06;;;;;;;50.60;18.00;;;7.50;99.90;;;;;;5024193;28;20488;-92
2020/12/13 04:44:32;;;;;;;59.97;19.67;;;7.50;99.90;;;;;;5038254;28;20056;-91
2020/12/13 04:47:05;;;;;;;58.60;19.98;;;7.50;99.90;;;;;;5058250;28;20033;-91
2020/12/13 04:49:39;;;;;;;56.55;18.75;;;7.50;99.90;;;;;;5040654;28;20136;-92
2020/12/13 04:52:05;;;;;;;55.25;19.10;;;7.50;99.90;;;;;;5041318;28;20043;-91
2020/12/13 04:54:31;;;;;;;63.92;21.38;;;7.50;99.90;;;;;;5040662;28;20024;-91
2020/12/13 04:57:00;;;;;;;71.13;24.00;;;7.50;99.90;;;;;;5040263;28;20032;-91
2020/12/13 04:59:26;;;;;;;56.08;20.40;;;7.50;99.90;;;;;;5040427;28;20025;-93
2020/12/13 05:01:58;;;;;;;53.80;22.17;;;7.50;99.90;;;;;;5040383;28;20068;-92
2020/12/13 05:04:24;;;;;;;58.67;24.48;;;7.60;99.90;;;;;;5040357;28;20028;-92
2020/12/13 05:06:49;;;;;;;51.38;22.38;;;7.60;99.90;;;;;;5039964;28;20092;-91
2020/12/13 05:09:15;;;;;;;63.70;24.10;;;7.50;99.90;;;;;;5039530;28;20396;-91
2020/12/13 05:11:45;;;;;;;59.15;24.20;;;7.60;99.90;;;;;;5023285;28;20037;-91
2020/12/13 05:14:15;;;;;;;62.53;25.45;;;7.60;99.90;;;;;;5039877;28;20025;-91
2020/12/13 05:16:41;;;;;;;60.30;24.73;;;7.60;99.90;;;;;;5040046;28;20025;-91
2020/12/13 05:19:07;;;;;;;54.17;23.55;;;7.60;99.90;;;;;;5057356;28;20025;-91
2020/12/13 05:21:34;;;;;;;61.83;26.70;;;7.70;99.90;;;;;;5057209;28;20365;-90
2020/12/13 05:24:10;;;;;;;64.07;27.83;;;7.70;99.90;;;;;;5057577;28;20353;-90
2020/12/13 05:26:38;;;;;;;59.28;25.73;;;7.80;99.90;;;;;;5023770;28;20124;-91
2020/12/13 05:29:05;;;;;;;55.53;25.02;;;7.80;99.90;;;;;;5039802;28;20039;-91
2020/12/13 05:31:32;;;;;;;57.50;24.85;;;7.80;99.90;;;;;;5045328;28;20036;-92
2020/12/13 05:36:40;;;;;;;52.28;24.83;;;7.80;99.90;;;;;;5079478;28;20018;-92
2020/12/13 05:39:06;;;;;;;59.35;26.83;;;7.90;99.90;;;;;;5063514;28;20024;-91
2020/12/13 05:41:36;;;;;;;57.58;27.20;;;7.90;99.90;;;;;;5063307;28;20121;-91
2020/12/13 05:44:49;;;;;;;60.63;26.60;;;7.90;99.90;;;;;;5053291;28;20037;-91
2020/12/13 05:49:58;;;;;;;59.08;27.63;;;8.00;99.90;;;;;;5037989;28;20069;-92
2020/12/13 05:52:23;;;;;;;55.85;25.23;;;8.00;99.90;;;;;;5036742;28;20087;-92
2020/12/13 05:54:56;;;;;;;55.17;26.35;;;8.00;99.90;;;;;;5036245;28;20466;-92
2020/12/13 05:57:23;;;;;;;47.90;24.45;;;8.00;99.90;;;;;;5037066;28;20014;-92
2020/12/13 05:59:58;;;;;;;57.67;27.25;;;8.00;99.90;;;;;;5035840;28;20060;-91
2020/12/13 06:02:37;;;;;;;57.15;26.98;;;8.00;99.90;;;;;;5035936;28;20028;-93
2020/12/13 06:05:30;;;;;;;56.97;26.85;;;8.00;99.90;;;;;;5036918;28;20025;-92
2020/12/13 06:08:01;;;;;;;54.67;26.02;;;8.10;99.90;;;;;;5035798;28;20486;-92
2020/12/13 06:10:39;;;;;;;56.90;27.88;;;8.00;99.90;;;;;;5035797;28;20036;-92
2020/12/13 06:13:16;;;;;;;62.60;29.77;;;8.00;99.90;;;;;;5035420;28;20064;-92
2020/12/13 06:15:58;;;;;;;56.08;26.58;;;8.00;99.90;;;;;;5035499;28;20038;-91
2020/12/13 06:18:32;;;;;;;60.95;28.77;;;8.10;99.90;;;;;;5035131;28;20121;-93
2020/12/13 06:21:01;;;;;;;64.03;29.90;;;8.10;99.90;;;;;;5035226;28;20350;-90
2020/12/13 06:23:35;;;;;;;59.10;28.38;;;8.00;99.90;;;;;;5032727;28;20033;-90
2020/12/13 06:26:06;;;;;;;61.65;29.30;;;8.10;99.90;;;;;;5035718;28;20021;-90
2020/12/13 06:28:38;;;;;;;55.13;27.02;;;8.00;99.90;;;;;;5035348;28;20029;-91
2020/12/13 06:31:03;;;;;;;52.00;26.70;;;8.10;99.90;;;;;;5035390;28;20029;-91
2020/12/13 06:33:44;;;;;;;53.30;25.02;;;8.10;99.90;;;;;;5034841;28;20025;-91
2020/12/13 06:36:10;;;;;;;43.47;22.65;;;8.10;99.90;;;;;;5035626;28;20018;-90
2020/12/13 06:38:41;;;;;;;52.60;26.45;;;8.10;99.90;;;;;;5035233;28;20029;-90
2020/12/13 06:41:12;;;;;;;45.05;24.65;;;8.10;99.90;;;;;;5035857;28;20065;-91
2020/12/13 06:43:41;;;;;;;64.00;29.73;;;8.10;99.90;;;;;;5018601;28;20492;-89
2020/12/13 06:46:15;;;;;;;59.53;27.02;;;8.10;99.90;;;;;;5034756;28;20052;-90
2020/12/13 06:48:42;;;;;;;54.67;25.35;;;8.10;99.90;;;;;;5035810;28;20041;-91
2020/12/13 06:51:10;;;;;;;44.58;23.35;;;8.10;99.90;;;;;;5035151;28;20053;-92
2020/12/13 06:53:39;;;;;;;49.90;24.63;;;8.10;99.90;;;;;;5034682;28;20040;-92
2020/12/13 06:56:09;;;;;;;51.10;25.00;;;8.10;99.90;;;;;;5035153;28;20040;-92
2020/12/13 06:59:00;;;;;;;52.72;26.20;;;8.10;99.90;;;;;;5035369;28;20021;-92
2020/12/13 07:01:27;;;;;;;60.35;27.92;;;8.10;99.90;;;;;;5031525;28;20025;-92
2020/12/13 07:03:53;;;;;;;56.60;26.35;;;8.10;99.90;;;;;;5034697;28;20025;-90
2020/12/13 07:06:25;;;;;;;51.03;25.45;;;8.10;99.90;;;;;;5036333;28;20048;-92
2020/12/13 07:08:58;;;;;;;53.20;24.23;;;8.10;99.90;;;;;;5034802;28;20465;-92
2020/12/13 07:11:38;;;;;;;53.00;25.40;;;8.10;99.90;;;;;;5035135;28;20026;-92
2020/12/13 07:14:15;;;;;;;49.28;24.23;;;8.10;99.90;;;;;;5035783;28;20031;-93
2020/12/13 07:16:46;;;;;;;52.22;24.52;;;8.10;99.90;;;;;;5034462;28;20019;-92
2020/12/13 07:19:19;;;;;;;55.55;26.40;;;8.10;99.90;;;;;;5035685;28;20057;-92
2020/12/13 07:21:46;;;;;;;53.83;24.08;;;8.10;99.90;;;;;;5035488;28;20029;-94
2020/12/13 07:24:16;;;;;;;53.40;24.48;;;8.10;99.90;;;;;;5034507;28;20473;-92
2020/12/13 07:26:54;;;;;;;56.67;26.30;;;8.10;99.90;;;;;;5034449;28;20048;-92
2020/12/13 07:29:20;;;;;;;50.05;25.60;;;8.10;99.90;;;;;;5034499;28;20059;-92
2020/12/13 07:31:53;;;;;;;49.53;24.33;;;8.10;99.90;;;;;;5035525;28;20022;-92
2020/12/13 07:34:25;;;;;;;49.58;24.65;;;8.10;99.90;;;;;;5034815;28;20030;-93
2020/12/13 07:36:51;;;;;;;45.85;22.75;;;8.10;99.90;;;;;;5034247;28;20438;-94
2020/12/13 07:39:22;;;;;;;42.10;22.30;;;8.10;99.90;;;;;;5033820;28;20061;-94
2020/12/13 07:41:53;;;;;;;44.42;21.67;;;8.10;99.90;;;;;;5031601;28;20037;-93
2020/12/13 07:44:24;;;;;;;45.80;23.98;;;8.10;99.90;;;;;;5046451;28;20045;-92
2020/12/13 07:46:52;;;;;;;47.08;25.15;;;8.10;99.90;;;;;;5036725;28;20059;-94
2020/12/13 07:49:25;;;;;;;49.75;24.92;;;8.10;99.90;;;;;;5037500;28;20041;-93
2020/12/13 07:51:57;;;;;;;45.15;24.30;;;8.10;99.90;;;;;;5055048;28;20491;-93
2020/12/13 07:54:41;;;;;;;51.80;26.95;;;8.10;99.90;;;;;;5037508;28;20052;-92
2020/12/13 07:57:18;;;;;;;51.15;25.95;;;8.10;99.90;;;;;;5037348;28;20028;-92
2020/12/13 07:59:43;;;;;;;47.55;26.00;;;8.10;99.90;;;;;;5037465;28;20025;-94
2020/12/13 08:02:11;;;;;;;46.72;24.40;;;8.10;99.90;;;;;;5037238;28;20484;-94
2020/12/13 08:04:47;;;;;;;47.55;24.50;;;8.10;99.90;;;;;;5037617;28;20132;-93
2020/12/13 08:07:28;;;;;;;51.97;27.42;;;8.10;99.90;;;;;;5055342;28;20457;-92
2020/12/13 08:09:59;;;;;;;44.60;24.15;;;8.10;99.90;;;;;;5038938;28;20124;-93
2020/12/13 08:12:39;;;;;;;43.42;24.88;;;8.10;99.90;;;;;;5043682;28;20183;-93
2020/12/13 08:15:16;;;;;;;41.15;22.83;;;8.10;99.90;;;;;;5049696;28;20013;-93
2020/12/13 08:18:05;;;;;;;45.30;24.25;;;8.10;99.90;;;;;;5033326;28;20024;-93
2020/12/13 08:20:49;;;;;;;41.53;23.38;;;8.10;99.90;;;;;;5033790;28;20021;-93
2020/12/13 08:23:27;;;;;;;42.15;24.70;;;8.10;99.90;;;;;;5051332;28;20025;-93
2020/12/13 08:25:53;;;;;;;45.05;25.55;;;8.10;99.90;;;;;;5048734;28;20036;-92
2020/12/13 08:28:19;;;;;;;44.58;24.75;;;8.10;99.90;;;;;;5041669;28;20025;-92
2020/12/13 08:30:56;;;;;;;42.03;23.48;;;8.10;99.90;;;;;;5042789;28;20032;-90
2020/12/13 08:33:32;;;;;;;39.13;22.80;;;8.10;99.90;;;;;;5057794;28;20116;-92
2020/12/13 08:35:58;;;;;;;38.53;21.50;;;8.10;99.90;;;;;;5044720;28;20041;-91
2020/12/13 08:38:31;;;;;;;36.33;21.00;;;8.10;99.90;;;;;;5058642;28;20248;-94
2020/12/13 08:40:56;;;;;;;38.25;23.23;;;8.10;99.90;;;;;;5047279;28;20021;-94
2020/12/13 08:43:34;;;;;;;38.40;21.50;;;8.10;99.90;;;;;;5060167;28;20518;-93
2020/12/13 08:46:08;;;;;;;35.72;20.63;;;8.10;99.90;;;;;;5043336;28;20480;-93
2020/12/13 08:48:59;;;;;;;38.10;21.90;;;8.10;99.90;;;;;;5041793;28;20058;-93
2020/12/13 08:51:32;;;;;;;39.10;21.55;;;8.10;99.90;;;;;;5033571;28;20098;-93
2020/12/13 08:54:06;;;;;;;37.22;21.77;;;8.10;99.90;;;;;;5029785;28;20087;-96
2020/12/13 08:56:36;;;;;;;38.75;22.50;;;8.10;99.90;;;;;;5042077;28;20035;-93
2020/12/13 08:59:28;;;;;;;38.42;21.95;;;8.00;99.90;;;;;;5040576;28;20023;-94
2020/12/13 09:02:03;;;;;;;34.83;21.70;;;8.10;99.90;;;;;;5065910;28;20036;-93
2020/12/13 09:04:36;;;;;;;31.48;20.23;;;8.00;99.90;;;;;;5062284;28;20020;-93
2020/12/13 09:07:05;;;;;;;38.40;23.90;;;8.00;99.90;;;;;;5061809;28;20026;-94
2020/12/13 09:09:38;;;;;;;35.20;21.35;;;8.00;99.90;;;;;;5045160;28;20167;-92
2020/12/13 09:12:42;;;;;;;44.28;23.75;;;8.00;99.90;;;;;;5061824;28;20032;-92
2020/12/13 09:15:24;;;;;;;35.90;22.17;;;8.00;99.90;;;;;;5029078;28;20128;-92
2020/12/13 09:17:54;;;;;;;35.65;20.83;;;7.90;99.90;;;;;;5041208;28;20024;-93
2020/12/13 09:20:26;;;;;;;36.50;21.08;;;8.00;99.90;;;;;;5039730;28;20051;-92
2020/12/13 09:23:10;;;;;;;38.25;22.10;;;7.90;99.90;;;;;;5038064;28;20035;-92
2020/12/13 09:25:40;;;;;;;38.53;23.38;;;8.00;99.90;;;;;;5038807;28;20035;-93
2020/12/13 09:28:15;;;;;;;37.97;22.13;;;8.00;99.90;;;;;;5057310;28;20035;-94
2020/12/13 09:30:45;;;;;;;42.40;24.75;;;8.00;99.90;;;;;;5037847;28;20404;-93
2020/12/13 09:33:19;;;;;;;45.38;24.98;;;8.00;99.90;;;;;;5038038;28;20029;-93
2020/12/13 09:36:26;;;;;;;37.92;23.60;;;8.00;99.90;;;;;;5039258;28;20025;-92
2020/12/13 09:39:43;;;;;;;41.90;24.83;;;8.00;99.90;;;;;;5032182;28;20037;-93
2020/12/13 09:42:38;;;;;;;45.03;26.33;;;8.10;99.90;;;;;;5041518;28;20079;-92
2020/12/13 09:45:50;;;;;;;;;;;;;;;;;;;;;
2020/12/13 09:48:20;;;;;;;44.17;25.33;;;8.10;99.90;;;;;;5047742;28;20614;-93
2020/12/13 09:50:52;;;;;;;42.58;26.45;;;8.10;99.90;;;;;;5057376;28;20114;-93
2020/12/13 09:53:30;;;;;;;44.55;26.67;;;8.10;99.90;;;;;;5021948;28;20132;-94
2020/12/13 09:56:06;;;;;;;;;;;;;;;;;;;;;
2020/12/13 09:58:33;;;;;;;54.35;31.98;;;8.10;99.90;;;;;;5040748;28;20039;-93
2020/12/13 10:01:03;;;;;;;55.92;33.50;;;8.10;99.90;;;;;;5040562;28;20025;-94
2020/12/13 10:03:29;;;;;;;44.72;29.88;;;8.10;99.90;;;;;;5035206;28;20029;-93
2020/12/13 10:11:46;;;;;;;56.67;33.38;;;8.20;99.90;;;;;;4995067;28;20034;-95
2020/12/13 10:14:25;;;;;;;60.67;35.88;;;8.20;99.90;;;;;;5050962;28;20073;-94
2020/12/13 10:16:52;;;;;;;55.83;32.40;;;8.20;99.90;;;;;;5056653;28;20036;-95
2020/12/13 10:19:23;;;;;;;59.78;35.88;;;8.30;99.90;;;;;;5043230;28;20037;-94
2020/12/13 10:21:52;;;;;;;57.97;36.47;;;8.30;99.90;;;;;;5072816;28;20031;-94
2020/12/13 10:24:22;;;;;;;64.45;34.65;;;8.30;99.90;;;;;;5073068;28;20029;-94
2020/12/13 10:27:00;;;;;;;70.15;38.15;;;8.30;99.90;;;;;;5060081;28;20017;-94
2020/12/13 10:29:26;;;;;;;58.42;35.60;;;8.30;99.90;;;;;;5095006;22;20062;-86
2020/12/13 10:31:51;;;;;;;58.80;34.58;;;8.30;99.90;;;;;;5092932;28;20016;-85
2020/12/13 10:34:17;;;;;;;62.13;36.03;;;8.30;99.90;;;;;;5074049;28;20040;-83
2020/12/13 10:36:43;;;;;;;54.20;35.35;;;8.30;99.90;;;;;;5092504;28;20020;-84
2020/12/13 10:39:10;;;;;;;58.92;35.15;;;8.30;99.90;;;;;;5074637;28;20024;-85
2020/12/13 10:41:37;;;;;;;51.35;31.33;;;8.30;99.90;;;;;;5074197;28;20054;-85
2020/12/13 10:44:03;;;;;;;57.10;33.92;;;8.40;99.90;;;;;;5082545;28;20019;-85
2020/12/13 10:46:29;;;;;;;60.35;37.25;;;8.40;99.90;;;;;;5093993;28;20031;-85
2020/12/13 10:48:55;;;;;;;60.47;34.25;;;8.50;99.90;;;;;;5093966;28;20032;-86
2020/12/13 10:51:21;;;;;;;58.03;33.95;;;8.50;99.90;;;;;;5093670;28;20039;-86
2020/12/13 10:53:47;;;;;;;45.83;30.42;;;8.50;99.90;;;;;;5093419;28;20078;-85
2020/12/13 10:56:14;;;;;;;50.65;33.03;;;8.50;99.90;;;;;;5093534;28;20022;-87
2020/12/13 10:58:43;;;;;;;45.50;30.10;;;8.50;99.90;;;;;;5111818;28;20097;-87
2020/12/13 11:01:10;;;;;;;44.17;28.50;;;8.50;99.90;;;;;;5093304;28;20019;-85
2020/12/13 11:03:37;;;;;;;47.03;29.27;;;8.60;99.90;;;;;;5085120;28;20012;-85
2020/12/13 11:06:02;;;;;;;44.67;28.55;;;8.60;99.90;;;;;;5075389;28;20062;-84
2020/12/13 11:08:28;;;;;;;41.80;27.60;;;8.60;99.90;;;;;;5083297;28;20416;-86
2020/12/13 11:10:54;;;;;;;43.22;27.85;;;8.60;99.90;;;;;;5093069;28;20416;-86
2020/12/13 11:13:19;;;;;;;48.10;29.30;;;8.70;99.90;;;;;;5093717;28;20027;-87
2020/12/13 11:15:46;;;;;;;41.67;29.25;;;8.70;99.90;;;;;;5087583;28;20088;-89
2020/12/13 11:18:12;;;;;;;45.88;29.90;;;8.70;99.90;;;;;;5075081;28;20202;-85
2020/12/13 11:20:38;;;;;;;42.42;27.77;;;8.80;99.90;;;;;;5058571;28;20024;-86
2020/12/13 11:23:08;;;;;;;36.60;26.40;;;8.80;99.90;;;;;;5074803;28;20537;-86
2020/12/13 11:25:34;;;;;;;39.13;24.90;;;8.80;99.90;;;;;;5092211;28;20028;-85
2020/12/13 11:28:01;;;;;;;35.30;24.58;;;8.90;99.90;;;;;;5092116;28;20035;-85
2020/12/13 11:30:26;;;;;;;39.83;25.00;;;8.90;99.90;;;;;;5091957;28;20055;-85
2020/12/13 11:32:52;;;;;;;32.75;21.65;;;9.00;99.90;;;;;;5070408;28;20035;-84
2020/12/13 11:35:18;;;;;;;36.17;22.35;;;9.00;99.90;;;;;;5071194;28;20020;-86
2020/12/13 11:37:44;;;;;;;27.42;19.52;;;9.10;99.90;;;;;;5071982;28;20054;-85
2020/12/13 11:40:10;;;;;;;28.45;19.17;;;9.10;99.90;;;;;;5073281;28;20031;-85
2020/12/13 11:42:36;;;;;;;26.23;18.15;;;9.20;99.90;;;;;;5092335;28;20024;-84
2020/12/13 11:45:04;;;;;;;27.52;17.92;;;9.20;99.90;;;;;;5091138;28;20461;-81
2020/12/13 11:47:30;;;;;;;24.70;15.55;;;9.20;99.90;;;;;;5091554;28;20016;-82
2020/12/13 11:49:55;;;;;;;21.98;15.52;;;9.30;99.90;;;;;;5105810;28;20051;-85
2020/12/13 11:52:21;;;;;;;22.33;15.32;;;9.20;99.90;;;;;;5092088;28;20103;-83
2020/12/13 11:54:48;;;;;;;24.95;14.50;;;9.20;99.90;;;;;;5092108;28;20040;-83
2020/12/13 11:57:14;;;;;;;23.55;13.15;;;9.20;99.90;;;;;;5073383;28;20020;-85
2020/12/13 11:59:40;;;;;;;18.48;12.02;;;9.20;99.90;;;;;;5090197;28;20388;-83
2020/12/13 12:02:06;;;;;;;22.85;13.13;;;9.20;99.90;;;;;;5071268;28;20031;-83
2020/12/13 12:04:31;;;;;;;17.83;11.68;;;9.20;99.90;;;;;;5071443;28;20024;-83
2020/12/13 12:06:59;;;;;;;20.13;11.75;;;9.30;99.90;;;;;;5071423;28;20376;-85
2020/12/13 12:09:25;;;;;;;15.93;10.50;;;9.40;99.90;;;;;;5089661;28;20563;-85
2020/12/13 12:11:50;;;;;;;16.48;10.23;;;9.50;99.90;;;;;;5088604;28;20051;-82
2020/12/13 12:14:16;;;;;;;16.73;9.93;;;9.50;99.90;;;;;;5070806;28;20019;-84
2020/12/13 12:16:45;;;;;;;14.80;9.52;;;9.60;99.90;;;;;;5070979;28;20534;-84
2020/12/13 12:19:12;;;;;;;17.58;9.45;;;9.50;99.90;;;;;;5070845;28;20027;-84
2020/12/13 12:21:50;;;;;;;15.73;9.35;;;9.40;99.90;;;;;;5088967;28;20097;-84
2020/12/13 12:24:18;;;;;;;12.57;8.05;;;9.40;99.90;;;;;;5089105;28;20031;-86
2020/12/13 12:26:44;;;;;;;14.40;8.35;;;9.30;99.90;;;;;;5096677;28;20681;-85
2020/12/13 12:29:10;;;;;;;11.85;8.00;;;9.30;99.90;;;;;;5074972;28;20059;-83
2020/12/13 12:31:36;;;;;;;16.20;7.97;;;9.20;99.90;;;;;;5089703;28;20131;-83
2020/12/13 12:34:03;;;;;;;12.75;7.82;;;9.20;99.90;;;;;;5071355;28;20120;-84
2020/12/13 12:36:29;;;;;;;12.45;7.68;;;9.10;99.90;;;;;;5089595;28;20488;-84
2020/12/13 12:38:55;;;;;;;14.10;7.80;;;9.00;99.90;;;;;;5070946;28;20032;-84
2020/12/13 12:41:22;;;;;;;12.38;7.40;;;8.90;99.90;;;;;;5071412;28;20024;-83
2020/12/13 12:43:49;;;;;;;11.07;7.13;;;8.90;99.90;;;;;;5070217;28;20032;-82
2020/12/13 12:46:16;;;;;;;12.13;6.45;;;8.90;99.90;;;;;;5089431;28;20023;-84
2020/12/13 12:48:47;;;;;;;13.77;6.30;;;9.00;99.90;;;;;;5089245;28;20032;-84
2020/12/13 12:51:13;;;;;;;13.60;6.53;;;9.00;99.90;;;;;;5071164;28;20127;-86
2020/12/13 12:53:38;;;;;;;10.48;6.65;;;9.00;99.90;;;;;;5071325;28;20107;-86
2020/12/13 12:56:07;;;;;;;11.68;6.50;;;9.10;99.90;;;;;;5071448;28;20028;-83
2020/12/13 12:58:41;;;;;;;10.38;7.22;;;9.00;99.90;;;;;;5092528;28;20024;-84
2020/12/13 13:01:10;;;;;;;14.15;6.63;;;9.10;99.90;;;;;;5075008;28;20038;-83
2020/12/13 13:03:36;;;;;;;14.85;6.97;;;9.00;99.90;;;;;;5080572;28;20023;-84
2020/12/13 13:06:27;;;;;;;11.20;6.65;;;9.00;99.90;;;;;;5102195;28;20032;-84
2020/12/13 13:09:02;;;;;;;12.13;6.82;;;8.90;99.90;;;;;;5084228;22;20102;-84
2020/12/13 13:11:38;;;;;;;11.43;6.25;;;8.90;99.90;;;;;;5045485;28;20017;-84
2020/12/13 13:14:05;;;;;;;11.30;6.45;;;8.90;99.90;;;;;;5055064;28;20025;-83
2020/12/13 13:16:32;;;;;;;15.73;6.72;;;8.80;99.90;;;;;;5046362;28;20031;-84
2020/12/13 13:19:04;;;;;;;9.60;6.20;;;8.90;99.90;;;;;;5027034;28;20045;-85
2020/12/13 13:21:41;;;;;;;11.85;7.18;;;8.90;99.90;;;;;;5045097;28;20059;-87
2020/12/13 13:24:06;;;;;;;14.23;7.50;;;8.90;99.90;;;;;;5040631;28;20021;-85